createdAt,value
2023-02-28T00:01:06.807Z,16.70
2023-02-28T00:03:35.538Z,12.30
2023-02-28T00:06:04.348Z,13.40
2023-02-28T00:08:31.037Z,12.90
2023-02-28T00:11:03.145Z,11.30
2023-02-28T00:13:30.154Z,12.40
2023-02-28T00:16:05.616Z,12.60
2023-02-28T00:18:32.603Z,13.90
2023-02-28T00:20:59.697Z,10.10
2023-02-28T00:23:27.819Z,14.90
2023-02-28T00:25:54.832Z,9.70
2023-02-28T00:28:22.526Z,13.30
2023-02-28T00:30:49.205Z,13.20
2023-02-28T00:33:16.377Z,11.70
2023-02-28T00:35:46.594Z,12.30
2023-02-28T00:38:16.361Z,13.40
2023-02-28T00:40:43.130Z,12.50
2023-02-28T00:43:11.501Z,16.20
2023-02-28T00:45:38.091Z,16.30
2023-02-28T00:48:05.017Z,15.80
2023-02-28T00:50:31.867Z,13.00
2023-02-28T00:52:58.556Z,12.50
2023-02-28T00:55:25.209Z,14.00
2023-02-28T00:57:51.880Z,16.50
2023-02-28T01:00:18.811Z,19.20
2023-02-28T01:02:45.382Z,16.80
2023-02-28T01:05:12.049Z,20.10
2023-02-28T01:07:38.892Z,15.30
2023-02-28T01:10:05.910Z,12.20
2023-02-28T01:12:33.122Z,18.60
2023-02-28T01:14:59.777Z,16.50
2023-02-28T01:17:26.699Z,19.00
2023-02-28T01:19:55.914Z,15.40
2023-02-28T01:22:25.286Z,15.00
2023-02-28T01:24:51.886Z,20.20
2023-02-28T01:27:18.805Z,21.30
2023-02-28T01:29:45.629Z,14.40
2023-02-28T01:32:12.790Z,23.90
2023-02-28T01:34:39.727Z,17.30
2023-02-28T01:37:06.297Z,20.90
2023-02-28T01:39:33.119Z,15.80
2023-02-28T01:41:59.687Z,17.60
2023-02-28T01:45:01.551Z,11.00
2023-02-28T01:47:35.651Z,20.20
2023-02-28T01:50:06.463Z,24.10
2023-02-28T01:52:34.107Z,21.60
2023-02-28T01:55:04.695Z,17.60
2023-02-28T01:57:38.183Z,18.40
2023-02-28T02:00:17.090Z,17.20
2023-02-28T02:02:53.797Z,25.30
2023-02-28T02:05:26.616Z,22.10
2023-02-28T02:07:57.346Z,24.30
2023-02-28T02:10:36.763Z,19.40
2023-02-28T02:13:13.354Z,18.60
2023-02-28T02:16:04.278Z,19.70
2023-02-28T02:18:44.156Z,22.20
2023-02-28T02:21:37.006Z,22.20
2023-02-28T02:24:41.068Z,21.10
2023-02-28T02:27:26.762Z,26.30
2023-02-28T02:30:08.377Z,16.80
2023-02-28T02:32:40.610Z,22.30
2023-02-28T02:35:23.448Z,16.60
2023-02-28T02:38:11.961Z,21.60
2023-02-28T02:40:47.279Z,21.80
2023-02-28T02:43:23.205Z,17.40
2023-02-28T02:45:57.733Z,22.20
2023-02-28T02:48:31.162Z,20.30
2023-02-28T02:51:01.965Z,21.30
2023-02-28T02:53:34.026Z,14.10
2023-02-28T02:56:04.056Z,14.30
2023-02-28T02:58:36.541Z,14.40
2023-02-28T03:01:05.338Z,13.60
2023-02-28T03:03:33.820Z,15.60
2023-02-28T03:06:01.883Z,14.30
2023-02-28T03:08:30.462Z,16.60
2023-02-28T03:11:03.034Z,19.20
2023-02-28T03:13:48.164Z,18.30
2023-02-28T03:16:35.029Z,15.90
2023-02-28T03:19:17.627Z,15.40
2023-02-28T03:22:07.065Z,15.20
2023-02-28T03:24:59.889Z,18.30
2023-02-28T03:27:37.547Z,17.60
2023-02-28T03:30:14.717Z,16.30
2023-02-28T03:32:41.417Z,14.90
2023-02-28T03:35:22.165Z,19.70
2023-02-28T03:37:54.441Z,21.60
2023-02-28T03:40:25.543Z,17.00
2023-02-28T03:42:59.733Z,23.60
2023-02-28T03:45:30.692Z,18.30
2023-02-28T03:51:17.577Z,22.40
2023-02-28T03:53:58.950Z,16.80
2023-02-28T03:56:33.575Z,23.70
2023-02-28T03:59:20.781Z,20.20
2023-02-28T04:01:50.855Z,25.50
2023-02-28T04:04:18.561Z,23.40
2023-02-28T04:06:46.154Z,21.70
2023-02-28T04:09:15.431Z,22.70
2023-02-28T04:11:49.232Z,21.60
2023-02-28T04:14:15.918Z,23.60
2023-02-28T04:16:42.980Z,25.30
2023-02-28T04:19:11.725Z,26.50
2023-02-28T04:21:41.965Z,19.60
2023-02-28T04:24:14.402Z,26.10
2023-02-28T04:26:47.020Z,27.10
2023-02-28T04:29:18.413Z,24.60
2023-02-28T04:31:45.406Z,27.20
2023-02-28T04:34:12.190Z,22.00
2023-02-28T04:36:38.743Z,27.70
2023-02-28T04:39:05.414Z,27.50
2023-02-28T04:41:33.832Z,23.80
2023-02-28T04:44:00.759Z,20.40
2023-02-28T04:46:27.468Z,20.60
2023-02-28T04:48:54.880Z,21.40
2023-02-28T04:51:21.544Z,23.70
2023-02-28T04:53:48.735Z,26.10
2023-02-28T04:56:17.860Z,21.50
2023-02-28T04:58:45.170Z,21.90
2023-02-28T05:01:27.495Z,23.00
2023-02-28T05:03:56.301Z,22.30
2023-02-28T05:06:25.499Z,24.70
2023-02-28T05:08:53.526Z,23.80
2023-02-28T05:11:23.706Z,20.30
2023-02-28T05:13:51.934Z,23.70
2023-02-28T05:16:19.385Z,25.70
2023-02-28T05:18:46.591Z,21.10
2023-02-28T05:21:28.987Z,20.30
2023-02-28T05:23:58.527Z,21.90
2023-02-28T05:26:26.062Z,25.00
2023-02-28T05:28:52.700Z,22.70
2023-02-28T05:31:19.550Z,23.10
2023-02-28T05:33:46.435Z,18.70
2023-02-28T05:36:13.060Z,28.90
2023-02-28T05:38:40.198Z,21.40
2023-02-28T05:41:11.859Z,28.60
2023-02-28T05:43:38.650Z,23.30
2023-02-28T05:46:07.206Z,22.60
2023-02-28T05:48:36.377Z,26.30
2023-02-28T05:51:04.251Z,20.80
2023-02-28T05:53:31.055Z,23.30
2023-02-28T05:55:57.788Z,24.00
2023-02-28T05:58:30.944Z,20.90
2023-02-28T06:00:59.446Z,27.20
2023-02-28T06:03:27.149Z,25.40
2023-02-28T06:05:54.278Z,24.00
2023-02-28T06:08:21.326Z,33.10
2023-02-28T06:10:48.102Z,21.50
2023-02-28T06:13:15.088Z,25.00
2023-02-28T06:15:41.951Z,32.60
2023-02-28T06:18:08.558Z,30.70
2023-02-28T06:20:36.628Z,25.60
2023-02-28T06:23:03.389Z,29.70
2023-02-28T06:25:30.380Z,29.10
2023-02-28T06:27:57.756Z,29.50
2023-02-28T06:30:27.048Z,26.00
2023-02-28T06:32:54.777Z,32.20
2023-02-28T06:35:23.005Z,31.60
2023-02-28T06:37:49.648Z,36.00
2023-02-28T06:40:16.507Z,33.60
2023-02-28T06:42:43.604Z,29.80
2023-02-28T06:45:11.627Z,30.10
2023-02-28T06:47:39.929Z,32.90
2023-02-28T06:50:08.980Z,31.00
2023-02-28T06:52:37.571Z,29.90
2023-02-28T06:55:06.336Z,36.40
2023-02-28T06:57:35.137Z,30.50
2023-02-28T07:00:05.458Z,29.70
2023-02-28T07:02:32.158Z,33.50
2023-02-28T07:04:59.347Z,28.10
2023-02-28T07:07:25.972Z,27.60
2023-02-28T07:09:52.683Z,37.10
2023-02-28T07:12:19.336Z,33.10
2023-02-28T07:14:46.053Z,26.60
2023-02-28T07:17:12.724Z,27.40
2023-02-28T07:19:40.095Z,34.20
2023-02-28T07:22:07.770Z,29.10
2023-02-28T07:24:34.465Z,33.30
2023-02-28T07:27:01.892Z,31.90
2023-02-28T07:29:28.966Z,32.60
2023-02-28T07:31:56.384Z,30.60
2023-02-28T07:34:23.356Z,37.10
2023-02-28T07:36:53.732Z,37.20
2023-02-28T07:39:21.986Z,33.60
2023-02-28T07:41:48.846Z,38.70
2023-02-28T07:44:15.478Z,39.80
2023-02-28T07:46:42.185Z,39.80
2023-02-28T07:49:09.225Z,34.10
2023-02-28T07:51:36.619Z,31.60
2023-02-28T07:54:03.560Z,34.80
2023-02-28T07:56:30.544Z,33.60
2023-02-28T07:58:57.450Z,33.40
2023-02-28T08:01:24.294Z,30.40
2023-02-28T08:03:50.952Z,28.10
2023-02-28T08:06:21.893Z,29.30
2023-02-28T08:08:48.964Z,33.20
2023-02-28T08:11:16.971Z,44.80
2023-02-28T08:13:45.435Z,30.00
2023-02-28T08:16:22.174Z,27.60
2023-02-28T08:18:52.793Z,24.40
2023-02-28T08:21:21.175Z,27.30
2023-02-28T08:23:49.310Z,24.00
2023-02-28T08:26:17.523Z,21.40
2023-02-28T08:28:44.765Z,21.80
2023-02-28T08:31:14.006Z,25.70
2023-02-28T08:33:41.840Z,20.90
2023-02-28T08:36:09.650Z,20.90
2023-02-28T08:38:37.350Z,16.80
2023-02-28T08:41:07.726Z,23.80
2023-02-28T08:43:35.192Z,20.30
2023-02-28T08:46:02.302Z,29.10
2023-02-28T08:48:31.201Z,14.10
2023-02-28T08:51:07.748Z,15.30
2023-02-28T08:53:39.725Z,12.30
2023-02-28T08:56:12.274Z,15.00
2023-02-28T08:58:40.072Z,17.40
2023-02-28T09:01:17.050Z,13.50
2023-02-28T09:03:49.837Z,15.10
2023-02-28T09:06:19.467Z,12.70
2023-02-28T09:08:46.114Z,17.80
2023-02-28T09:11:13.851Z,12.60
2023-02-28T09:13:41.139Z,12.00
2023-02-28T09:16:11.083Z,13.30
2023-02-28T09:18:38.736Z,15.20
2023-02-28T09:21:13.886Z,17.60
2023-02-28T09:23:44.644Z,12.60
2023-02-28T09:26:19.665Z,14.70
2023-02-28T09:28:46.824Z,12.00
2023-02-28T09:31:17.060Z,15.20
2023-02-28T09:33:43.783Z,13.50
2023-02-28T09:36:10.824Z,11.40
2023-02-28T09:38:37.512Z,13.70
2023-02-28T09:41:13.175Z,11.00
2023-02-28T09:43:48.470Z,13.30
2023-02-28T09:46:32.269Z,10.00
2023-02-28T09:49:06.894Z,11.30
2023-02-28T09:51:59.239Z,11.90
2023-02-28T09:54:29.676Z,13.10
2023-02-28T09:57:05.228Z,13.60
2023-02-28T09:59:50.036Z,17.60
2023-02-28T10:02:35.724Z,11.80
2023-02-28T10:05:15.356Z,15.10
2023-02-28T10:07:45.117Z,12.20
2023-02-28T10:10:28.392Z,16.20
2023-02-28T10:13:00.668Z,10.30
2023-02-28T10:15:31.501Z,10.00
2023-02-28T10:18:09.323Z,9.90
2023-02-28T10:20:40.464Z,10.30
2023-02-28T10:23:25.844Z,11.40
2023-02-28T10:26:11.877Z,14.00
2023-02-28T10:28:39.735Z,11.90
2023-02-28T10:31:15.902Z,12.50
2023-02-28T10:36:14.762Z,9.80
2023-02-28T10:38:41.402Z,12.80
2023-02-28T10:41:10.670Z,11.00
2023-02-28T10:43:39.047Z,11.70
2023-02-28T10:46:08.770Z,12.00
2023-02-28T10:48:42.902Z,14.60
2023-02-28T10:51:12.713Z,14.60
2023-02-28T10:54:00.499Z,13.20
2023-02-28T10:56:28.068Z,13.00
2023-02-28T10:58:59.760Z,18.00
2023-02-28T11:01:32.637Z,14.40
2023-02-28T11:03:59.700Z,11.60
2023-02-28T11:06:31.426Z,10.60
2023-02-28T11:09:16.993Z,11.90
2023-02-28T11:11:47.375Z,12.00
2023-02-28T11:14:28.318Z,12.60
2023-02-28T11:16:59.399Z,12.00
2023-02-28T11:19:34.940Z,13.90
2023-02-28T11:22:04.431Z,10.00
2023-02-28T11:24:42.424Z,12.10
2023-02-28T11:27:31.174Z,12.70
2023-02-28T11:29:59.692Z,16.20
2023-02-28T11:32:31.170Z,14.10
2023-02-28T11:35:12.165Z,15.50
2023-02-28T11:37:41.246Z,11.40
2023-02-28T11:40:38.480Z,10.70
2023-02-28T11:43:51.329Z,13.60
2023-02-28T11:46:41.484Z,11.40
2023-02-28T11:49:18.799Z,11.30
2023-02-28T11:52:03.467Z,21.70
2023-02-28T11:54:59.139Z,12.60
2023-02-28T11:57:49.899Z,14.20
2023-02-28T12:00:40.882Z,11.30
2023-02-28T12:03:28.474Z,11.00
2023-02-28T12:06:21.761Z,16.50
2023-02-28T12:09:22.097Z,15.30
2023-02-28T12:11:55.672Z,12.80
2023-02-28T12:14:42.599Z,12.60
2023-02-28T12:17:09.473Z,11.00
2023-02-28T12:20:02.219Z,14.50
2023-02-28T12:22:41.845Z,12.30
2023-02-28T12:25:30.707Z,15.00
2023-02-28T12:27:57.487Z,13.40
2023-02-28T12:30:35.831Z,14.20
2023-02-28T12:33:12.748Z,11.40
2023-02-28T12:35:44.409Z,14.20
2023-02-28T12:38:24.014Z,10.50
2023-02-28T12:40:54.515Z,13.50
2023-02-28T12:43:25.846Z,13.20
2023-02-28T12:45:58.399Z,11.80
2023-02-28T12:48:36.685Z,14.80
2023-02-28T12:51:04.720Z,12.90
2023-02-28T12:54:05.359Z,11.70
2023-02-28T12:56:47.187Z,13.20
2023-02-28T12:59:24.192Z,12.00
2023-02-28T13:02:02.712Z,16.20
2023-02-28T13:05:10.780Z,13.50
2023-02-28T13:08:04.690Z,13.80
2023-02-28T13:10:49.309Z,12.90
2023-02-28T13:13:20.062Z,11.30
2023-02-28T13:16:00.173Z,12.90
2023-02-28T13:18:40.621Z,11.70
2023-02-28T13:21:21.967Z,14.20
2023-02-28T13:24:05.139Z,12.20
2023-02-28T13:26:38.125Z,13.50
2023-02-28T13:29:11.044Z,17.90
2023-02-28T13:32:02.489Z,14.90
2023-02-28T13:34:29.228Z,15.10
2023-02-28T13:37:17.950Z,12.90
2023-02-28T13:39:44.686Z,11.40
2023-02-28T13:42:34.757Z,11.30
2023-02-28T13:45:04.599Z,13.10
2023-02-28T13:47:45.817Z,10.50
2023-02-28T13:50:22.034Z,11.60
2023-02-28T13:53:12.488Z,11.60
2023-02-28T13:55:54.674Z,9.90
2023-02-28T13:58:49.028Z,16.10
2023-02-28T14:01:22.239Z,10.30
2023-02-28T14:03:57.061Z,13.00
2023-02-28T14:06:32.901Z,12.50
2023-02-28T14:09:08.125Z,10.10
2023-02-28T14:11:40.432Z,20.90
2023-02-28T14:14:09.422Z,10.40
2023-02-28T14:16:46.284Z,11.50
2023-02-28T14:19:21.845Z,12.90
2023-02-28T14:21:51.327Z,15.10
2023-02-28T14:24:51.390Z,15.30
2023-02-28T14:27:18.068Z,15.30
2023-02-28T14:29:50.486Z,13.40
2023-02-28T14:32:45.812Z,11.10
2023-02-28T14:35:43.298Z,13.20
2023-02-28T14:38:28.350Z,13.30
2023-02-28T14:40:58.927Z,13.40
2023-02-28T14:43:28.492Z,13.00
2023-02-28T14:45:58.560Z,12.60
2023-02-28T14:48:27.193Z,12.40
2023-02-28T14:51:02.678Z,14.60
2023-02-28T14:53:35.336Z,16.00
2023-02-28T14:56:02.503Z,15.40
2023-02-28T14:58:32.139Z,11.30
2023-02-28T15:01:02.235Z,13.60
2023-02-28T15:03:34.813Z,15.10
2023-02-28T15:06:17.776Z,13.30
2023-02-28T15:08:46.075Z,14.10
2023-02-28T15:11:22.814Z,13.40
2023-02-28T15:13:51.608Z,16.80
2023-02-28T15:16:57.982Z,16.40
2023-02-28T15:19:29.754Z,12.60
2023-02-28T15:22:13.329Z,12.20
2023-02-28T15:24:44.917Z,12.60
2023-02-28T15:27:21.393Z,15.60
2023-02-28T15:29:51.377Z,13.30
2023-02-28T15:32:36.594Z,16.60
2023-02-28T15:35:27.876Z,14.40
2023-02-28T15:38:00.684Z,18.00
2023-02-28T15:40:37.153Z,14.20
2023-02-28T15:43:06.868Z,11.90
2023-02-28T15:45:41.713Z,16.70
2023-02-28T15:48:30.206Z,13.70
2023-02-28T15:51:08.916Z,11.40
2023-02-28T15:53:48.748Z,13.60
2023-02-28T15:56:25.496Z,14.50
2023-02-28T15:58:58.011Z,17.40
2023-02-28T16:01:33.738Z,10.80
2023-02-28T16:04:14.544Z,14.30
2023-02-28T16:07:13.176Z,27.00
2023-02-28T16:09:39.871Z,25.30
2023-02-28T16:12:13.713Z,27.50
2023-02-28T16:14:40.895Z,39.10
2023-02-28T16:17:19.536Z,60.10
2023-02-28T16:19:46.460Z,70.20
2023-02-28T16:22:13.282Z,62.30
2023-02-28T16:24:40.623Z,80.50
2023-02-28T16:27:11.133Z,79.20
2023-02-28T16:29:38.121Z,84.30
2023-02-28T16:32:06.439Z,59.60
2023-02-28T16:34:33.236Z,46.80
2023-02-28T16:37:00.119Z,47.90
2023-02-28T16:39:26.712Z,47.90
2023-02-28T16:41:53.515Z,34.10
2023-02-28T16:44:26.491Z,29.60
2023-02-28T16:46:53.216Z,25.40
2023-02-28T16:49:19.842Z,19.40
2023-02-28T16:51:46.796Z,18.00
2023-02-28T16:54:13.963Z,15.20
2023-02-28T16:56:45.164Z,20.70
2023-02-28T16:59:13.096Z,13.60
2023-02-28T17:01:40.230Z,13.60
2023-02-28T17:04:09.661Z,21.20
2023-02-28T17:06:36.420Z,12.60
2023-02-28T17:09:03.554Z,19.60
2023-02-28T17:11:31.047Z,14.10
2023-02-28T17:13:58.241Z,29.00
2023-02-28T17:16:28.015Z,20.70
2023-02-28T17:18:58.217Z,27.80
2023-02-28T17:21:24.919Z,41.90
2023-02-28T17:23:51.548Z,39.20
2023-02-28T17:26:24.908Z,37.10
2023-02-28T17:28:54.107Z,52.60
2023-02-28T17:31:20.734Z,33.70
2023-02-28T17:33:47.637Z,28.20
2023-02-28T17:36:22.294Z,33.50
2023-02-28T17:38:49.812Z,45.40
2023-02-28T17:41:16.736Z,57.00
2023-02-28T17:43:43.648Z,84.80
2023-02-28T17:46:20.940Z,80.00
2023-02-28T17:48:52.215Z,40.70
2023-02-28T17:51:21.049Z,24.00
2023-02-28T17:53:48.438Z,30.00
2023-02-28T17:56:23.605Z,27.00
2023-02-28T17:58:52.718Z,31.70
2023-02-28T18:01:20.594Z,31.40
2023-02-28T18:03:48.105Z,26.00
2023-02-28T18:06:24.904Z,20.80
2023-02-28T18:08:52.379Z,25.20
2023-02-28T18:11:24.096Z,25.80
2023-02-28T18:13:53.046Z,29.00
2023-02-28T18:16:22.190Z,27.20
2023-02-28T18:18:49.352Z,19.00
2023-02-28T18:21:17.494Z,22.50
2023-02-28T18:23:47.732Z,25.20
2023-02-28T18:26:17.611Z,23.20
2023-02-28T18:28:47.479Z,22.70
2023-02-28T18:31:17.636Z,22.30
2023-02-28T18:33:48.711Z,21.30
2023-02-28T18:36:20.335Z,20.90
2023-02-28T18:38:49.927Z,26.80
2023-02-28T18:41:20.052Z,22.70
2023-02-28T18:43:50.148Z,22.00
2023-02-28T18:46:21.369Z,29.90
2023-02-28T18:48:49.131Z,25.70
2023-02-28T19:01:50.674Z,26.20
2023-02-28T19:04:19.140Z,22.50
2023-02-28T19:06:47.359Z,28.10
2023-02-28T19:09:15.707Z,24.00
2023-02-28T19:11:43.758Z,22.50
2023-02-28T19:14:12.076Z,30.70
2023-02-28T19:16:40.376Z,26.20
2023-02-28T19:19:08.526Z,22.10
2023-02-28T19:21:36.845Z,18.90
2023-02-28T19:24:05.121Z,23.40
2023-02-28T19:26:33.739Z,22.50
2023-02-28T19:29:04.451Z,21.90
2023-02-28T19:31:32.847Z,20.40
2023-02-28T19:34:01.550Z,20.70
2023-02-28T19:36:29.534Z,18.40
2023-02-28T19:38:57.492Z,18.00
2023-02-28T19:41:25.599Z,13.70
2023-02-28T19:43:54.495Z,14.90
2023-02-28T19:46:22.752Z,23.60
2023-02-28T19:48:54.336Z,28.50
2023-02-28T19:51:23.133Z,28.40
2023-02-28T19:53:51.521Z,36.10
2023-02-28T19:56:19.864Z,25.00
2023-02-28T19:58:48.209Z,59.90
2023-02-28T20:01:19.108Z,64.20
2023-02-28T20:03:50.701Z,80.60
2023-02-28T20:06:19.115Z,43.00
2023-02-28T20:08:47.293Z,57.40
2023-02-28T20:11:17.092Z,78.80
2023-02-28T20:13:45.880Z,71.00
2023-02-28T20:16:15.761Z,29.60
2023-02-28T20:18:45.941Z,25.20
2023-02-28T20:21:14.420Z,18.90
2023-02-28T20:23:43.321Z,21.10
2023-02-28T20:26:12.639Z,29.00
2023-02-28T20:28:41.352Z,33.40
2023-02-28T20:31:18.783Z,31.80
2023-02-28T20:33:48.938Z,29.60
2023-02-28T20:36:19.750Z,19.70
2023-02-28T20:38:48.012Z,17.70
2023-02-28T20:41:16.315Z,17.00
2023-02-28T20:43:45.781Z,16.40
2023-02-28T20:46:14.328Z,18.50
2023-02-28T20:48:42.300Z,16.10
2023-02-28T20:51:11.329Z,27.50
2023-02-28T20:53:39.662Z,16.80
2023-02-28T20:56:18.951Z,19.30
2023-02-28T20:58:49.256Z,15.80
2023-02-28T21:01:20.110Z,19.90
2023-02-28T21:03:50.203Z,21.60
2023-02-28T21:06:21.327Z,27.90
2023-02-28T21:08:49.925Z,32.40
2023-02-28T21:11:27.258Z,35.50
2023-02-28T21:13:58.531Z,36.40
2023-02-28T21:16:27.325Z,47.10
2023-02-28T21:18:56.320Z,59.10
2023-02-28T21:21:27.565Z,51.60
2023-02-28T21:23:55.540Z,31.60
2023-02-28T21:26:24.399Z,32.60
2023-02-28T21:28:57.890Z,28.10
2023-02-28T21:31:28.398Z,28.00
2023-02-28T21:33:57.774Z,23.50
2023-02-28T21:36:32.883Z,25.50
2023-02-28T21:39:05.507Z,23.40
2023-02-28T21:41:34.685Z,23.50
2023-02-28T21:44:03.013Z,22.50
2023-02-28T21:46:34.852Z,20.80
2023-02-28T21:49:03.328Z,21.90
2023-02-28T21:51:31.646Z,18.80
2023-02-28T21:54:00.815Z,17.20
2023-02-28T21:56:34.535Z,19.10
2023-02-28T21:59:04.009Z,16.20
2023-02-28T22:01:35.391Z,17.50
2023-02-28T22:04:05.755Z,16.30
2023-02-28T22:06:36.286Z,20.10
2023-02-28T22:09:07.112Z,16.60
2023-02-28T22:11:38.036Z,18.00
2023-02-28T22:14:07.758Z,23.00
2023-02-28T22:16:50.090Z,23.50
2023-02-28T22:19:20.859Z,17.70
2023-02-28T22:21:49.902Z,16.60
2023-02-28T22:24:20.622Z,16.30
2023-02-28T22:26:49.820Z,20.80
2023-02-28T22:29:17.812Z,21.00
2023-02-28T22:31:45.959Z,19.70
2023-02-28T22:34:14.511Z,25.00
2023-02-28T22:36:43.461Z,18.10
2023-02-28T22:39:12.498Z,24.10
2023-02-28T22:41:40.609Z,43.50
2023-02-28T22:44:09.144Z,50.20
2023-02-28T22:46:37.371Z,73.40
2023-02-28T22:49:06.208Z,32.90
2023-02-28T22:51:34.871Z,49.50
2023-02-28T22:54:03.998Z,54.20
2023-02-28T22:56:32.446Z,79.50
2023-02-28T22:59:01.749Z,94.90
2023-02-28T23:01:32.552Z,119.10
2023-02-28T23:04:01.488Z,50.50
2023-02-28T23:06:35.017Z,23.40
2023-02-28T23:09:06.889Z,25.00
2023-02-28T23:11:38.952Z,21.60
2023-02-28T23:14:07.699Z,22.50
2023-02-28T23:16:39.785Z,19.00
2023-02-28T23:19:13.984Z,20.80
2023-02-28T23:21:44.530Z,26.80
2023-02-28T23:24:15.348Z,35.00
2023-02-28T23:26:48.950Z,35.40
2023-02-28T23:29:18.547Z,49.30
2023-02-28T23:31:47.183Z,44.20
2023-02-28T23:34:17.315Z,53.20
2023-02-28T23:36:46.640Z,85.10
2023-02-28T23:39:17.050Z,63.00
2023-02-28T23:41:46.244Z,48.90
2023-02-28T23:44:16.996Z,48.10
2023-02-28T23:46:46.897Z,49.40
2023-02-28T23:49:16.321Z,50.80
2023-02-28T23:51:44.213Z,52.40
2023-02-28T23:54:12.774Z,46.40
2023-02-28T23:56:41.118Z,46.60
2023-02-28T23:59:09.216Z,47.70
